sensor_id;sensor_type;location;lat;lon;timestamp;P1;durP1;ratioP1;P2;durP2;ratioP2
12880;SDS011;6508;53.786;9.996;2023-05-28T00:00:34;18.70;;;7.15;;
12880;SDS011;6508;53.786;9.996;2023-05-28T00:03:02;17.23;;;7.80;;
12880;SDS011;6508;53.786;9.996;2023-05-28T00:05:31;17.88;;;7.68;;
12880;SDS011;6508;53.786;9.996;2023-05-28T00:07:59;16.60;;;7.80;;
12880;SDS011;6508;53.786;9.996;2023-05-28T00:10:27;13.68;;;7.28;;
12880;SDS011;6508;53.786;9.996;2023-05-28T00:12:55;17.00;;;8.00;;
12880;SDS011;6508;53.786;9.996;2023-05-28T00:15:25;18.35;;;9.02;;
12880;SDS011;6508;53.786;9.996;2023-05-28T00:17:53;20.30;;;9.27;;
12880;SDS011;6508;53.786;9.996;2023-05-28T00:20:23;16.25;;;8.57;;
12880;SDS011;6508;53.786;9.996;2023-05-28T00:22:51;18.90;;;7.93;;
12880;SDS011;6508;53.786;9.996;2023-05-28T00:25:19;16.73;;;8.77;;
12880;SDS011;6508;53.786;9.996;2023-05-28T00:27:47;19.75;;;8.35;;
12880;SDS011;6508;53.786;9.996;2023-05-28T00:30:15;14.10;;;7.72;;
12880;SDS011;6508;53.786;9.996;2023-05-28T00:32:44;15.50;;;7.78;;
12880;SDS011;6508;53.786;9.996;2023-05-28T00:35:12;17.17;;;8.13;;
12880;SDS011;6508;53.786;9.996;2023-05-28T00:37:40;12.80;;;7.53;;
12880;SDS011;6508;53.786;9.996;2023-05-28T00:40:08;16.95;;;7.63;;
12880;SDS011;6508;53.786;9.996;2023-05-28T00:42:36;11.45;;;7.05;;
12880;SDS011;6508;53.786;9.996;2023-05-28T00:45:05;14.48;;;7.47;;
12880;SDS011;6508;53.786;9.996;2023-05-28T00:47:34;16.42;;;7.47;;
12880;SDS011;6508;53.786;9.996;2023-05-28T00:50:04;12.68;;;6.95;;
12880;SDS011;6508;53.786;9.996;2023-05-28T00:52:33;12.52;;;6.55;;
12880;SDS011;6508;53.786;9.996;2023-05-28T00:55:02;14.43;;;6.68;;
12880;SDS011;6508;53.786;9.996;2023-05-28T00:57:31;12.55;;;6.93;;
12880;SDS011;6508;53.786;9.996;2023-05-28T00:59:59;11.23;;;6.57;;
12880;SDS011;6508;53.786;9.996;2023-05-28T01:02:31;16.17;;;7.20;;
12880;SDS011;6508;53.786;9.996;2023-05-28T01:04:59;15.75;;;7.70;;
12880;SDS011;6508;53.786;9.996;2023-05-28T01:07:28;14.55;;;7.43;;
12880;SDS011;6508;53.786;9.996;2023-05-28T01:09:56;12.75;;;7.28;;
12880;SDS011;6508;53.786;9.996;2023-05-28T01:12:24;18.35;;;7.25;;
12880;SDS011;6508;53.786;9.996;2023-05-28T01:14:53;10.98;;;7.05;;
12880;SDS011;6508;53.786;9.996;2023-05-28T01:17:21;15.75;;;7.55;;
12880;SDS011;6508;53.786;9.996;2023-05-28T01:19:49;15.98;;;7.53;;
12880;SDS011;6508;53.786;9.996;2023-05-28T01:22:18;14.23;;;6.97;;
12880;SDS011;6508;53.786;9.996;2023-05-28T01:24:48;14.05;;;7.32;;
12880;SDS011;6508;53.786;9.996;2023-05-28T01:27:18;10.90;;;7.32;;
12880;SDS011;6508;53.786;9.996;2023-05-28T01:29:46;10.13;;;7.03;;
12880;SDS011;6508;53.786;9.996;2023-05-28T01:32:14;9.30;;;6.97;;
12880;SDS011;6508;53.786;9.996;2023-05-28T01:34:42;10.38;;;7.15;;
12880;SDS011;6508;53.786;9.996;2023-05-28T01:37:10;10.38;;;6.93;;
12880;SDS011;6508;53.786;9.996;2023-05-28T01:39:43;11.23;;;6.43;;
12880;SDS011;6508;53.786;9.996;2023-05-28T01:42:14;12.45;;;6.72;;
12880;SDS011;6508;53.786;9.996;2023-05-28T01:44:43;8.35;;;6.28;;
12880;SDS011;6508;53.786;9.996;2023-05-28T01:47:12;8.52;;;6.00;;
12880;SDS011;6508;53.786;9.996;2023-05-28T01:49:41;11.48;;;5.80;;
12880;SDS011;6508;53.786;9.996;2023-05-28T01:52:12;11.90;;;6.15;;
12880;SDS011;6508;53.786;9.996;2023-05-28T01:54:40;12.73;;;6.18;;
12880;SDS011;6508;53.786;9.996;2023-05-28T01:57:08;7.80;;;5.70;;
12880;SDS011;6508;53.786;9.996;2023-05-28T01:59:38;7.07;;;5.57;;
12880;SDS011;6508;53.786;9.996;2023-05-28T02:02:06;9.80;;;6.35;;
12880;SDS011;6508;53.786;9.996;2023-05-28T02:04:35;10.63;;;6.13;;
12880;SDS011;6508;53.786;9.996;2023-05-28T02:07:03;7.03;;;6.15;;
12880;SDS011;6508;53.786;9.996;2023-05-28T02:09:32;7.78;;;6.20;;
12880;SDS011;6508;53.786;9.996;2023-05-28T02:12:00;13.10;;;6.13;;
12880;SDS011;6508;53.786;9.996;2023-05-28T02:14:29;12.52;;;7.63;;
12880;SDS011;6508;53.786;9.996;2023-05-28T02:16:59;14.10;;;9.00;;
12880;SDS011;6508;53.786;9.996;2023-05-28T02:19:26;17.25;;;8.55;;
12880;SDS011;6508;53.786;9.996;2023-05-28T02:21:55;13.35;;;8.98;;
12880;SDS011;6508;53.786;9.996;2023-05-28T02:24:24;19.95;;;9.50;;
12880;SDS011;6508;53.786;9.996;2023-05-28T02:26:53;22.00;;;9.02;;
12880;SDS011;6508;53.786;9.996;2023-05-28T02:29:22;17.27;;;9.70;;
12880;SDS011;6508;53.786;9.996;2023-05-28T02:31:51;20.00;;;10.02;;
12880;SDS011;6508;53.786;9.996;2023-05-28T02:34:20;22.80;;;9.35;;
12880;SDS011;6508;53.786;9.996;2023-05-28T02:36:48;18.65;;;9.52;;
12880;SDS011;6508;53.786;9.996;2023-05-28T02:39:19;17.48;;;8.88;;
12880;SDS011;6508;53.786;9.996;2023-05-28T02:41:47;15.27;;;9.07;;
12880;SDS011;6508;53.786;9.996;2023-05-28T02:44:15;21.10;;;9.30;;
12880;SDS011;6508;53.786;9.996;2023-05-28T02:46:43;13.23;;;8.82;;
12880;SDS011;6508;53.786;9.996;2023-05-28T02:49:11;20.02;;;9.35;;
12880;SDS011;6508;53.786;9.996;2023-05-28T02:51:40;21.30;;;9.25;;
12880;SDS011;6508;53.786;9.996;2023-05-28T02:54:18;18.45;;;9.68;;
12880;SDS011;6508;53.786;9.996;2023-05-28T02:56:46;25.73;;;10.05;;
12880;SDS011;6508;53.786;9.996;2023-05-28T02:59:14;17.83;;;9.43;;
12880;SDS011;6508;53.786;9.996;2023-05-28T03:01:42;20.02;;;10.65;;
12880;SDS011;6508;53.786;9.996;2023-05-28T03:04:11;12.50;;;8.82;;
12880;SDS011;6508;53.786;9.996;2023-05-28T03:06:42;16.10;;;8.80;;
12880;SDS011;6508;53.786;9.996;2023-05-28T03:09:10;20.98;;;9.25;;
12880;SDS011;6508;53.786;9.996;2023-05-28T03:11:41;15.20;;;9.40;;
12880;SDS011;6508;53.786;9.996;2023-05-28T03:14:10;17.98;;;10.20;;
12880;SDS011;6508;53.786;9.996;2023-05-28T03:16:38;18.48;;;9.20;;
12880;SDS011;6508;53.786;9.996;2023-05-28T03:19:13;20.45;;;10.00;;
12880;SDS011;6508;53.786;9.996;2023-05-28T03:21:43;20.40;;;9.82;;
12880;SDS011;6508;53.786;9.996;2023-05-28T03:24:12;19.33;;;10.75;;
12880;SDS011;6508;53.786;9.996;2023-05-28T03:26:50;18.00;;;9.45;;
12880;SDS011;6508;53.786;9.996;2023-05-28T03:29:21;22.88;;;10.73;;
12880;SDS011;6508;53.786;9.996;2023-05-28T03:31:59;18.23;;;10.77;;
12880;SDS011;6508;53.786;9.996;2023-05-28T03:34:27;16.23;;;9.45;;
12880;SDS011;6508;53.786;9.996;2023-05-28T03:36:57;15.13;;;9.30;;
12880;SDS011;6508;53.786;9.996;2023-05-28T03:39:26;18.73;;;9.38;;
12880;SDS011;6508;53.786;9.996;2023-05-28T03:41:54;20.88;;;11.07;;
12880;SDS011;6508;53.786;9.996;2023-05-28T03:44:25;21.70;;;10.52;;
12880;SDS011;6508;53.786;9.996;2023-05-28T03:46:53;21.67;;;10.70;;
12880;SDS011;6508;53.786;9.996;2023-05-28T03:49:21;17.27;;;9.27;;
12880;SDS011;6508;53.786;9.996;2023-05-28T03:51:48;15.68;;;9.82;;
12880;SDS011;6508;53.786;9.996;2023-05-28T03:54:18;21.63;;;10.20;;
12880;SDS011;6508;53.786;9.996;2023-05-28T03:56:46;21.20;;;9.27;;
12880;SDS011;6508;53.786;9.996;2023-05-28T03:59:14;21.33;;;9.02;;
12880;SDS011;6508;53.786;9.996;2023-05-28T04:01:42;19.80;;;10.02;;
12880;SDS011;6508;53.786;9.996;2023-05-28T04:04:10;17.40;;;9.38;;
12880;SDS011;6508;53.786;9.996;2023-05-28T04:06:40;18.80;;;9.63;;
12880;SDS011;6508;53.786;9.996;2023-05-28T04:09:08;15.23;;;9.30;;
12880;SDS011;6508;53.786;9.996;2023-05-28T04:11:38;22.10;;;9.52;;
12880;SDS011;6508;53.786;9.996;2023-05-28T04:14:11;16.80;;;9.15;;
12880;SDS011;6508;53.786;9.996;2023-05-28T04:16:39;18.05;;;8.50;;
12880;SDS011;6508;53.786;9.996;2023-05-28T04:19:07;17.70;;;8.60;;
12880;SDS011;6508;53.786;9.996;2023-05-28T04:21:36;13.95;;;9.18;;
12880;SDS011;6508;53.786;9.996;2023-05-28T04:24:05;15.00;;;7.80;;
12880;SDS011;6508;53.786;9.996;2023-05-28T04:26:33;16.95;;;8.48;;
12880;SDS011;6508;53.786;9.996;2023-05-28T04:29:02;12.57;;;7.68;;
12880;SDS011;6508;53.786;9.996;2023-05-28T04:31:30;16.40;;;7.80;;
12880;SDS011;6508;53.786;9.996;2023-05-28T04:33:59;11.45;;;7.30;;
12880;SDS011;6508;53.786;9.996;2023-05-28T04:36:27;13.18;;;7.35;;
12880;SDS011;6508;53.786;9.996;2023-05-28T04:38:59;14.68;;;6.85;;
12880;SDS011;6508;53.786;9.996;2023-05-28T04:41:28;11.40;;;6.70;;
12880;SDS011;6508;53.786;9.996;2023-05-28T04:43:57;9.07;;;6.28;;
12880;SDS011;6508;53.786;9.996;2023-05-28T04:46:27;10.70;;;6.97;;
12880;SDS011;6508;53.786;9.996;2023-05-28T04:48:57;9.73;;;6.60;;
12880;SDS011;6508;53.786;9.996;2023-05-28T04:51:26;8.07;;;5.97;;
12880;SDS011;6508;53.786;9.996;2023-05-28T04:53:54;12.65;;;6.47;;
12880;SDS011;6508;53.786;9.996;2023-05-28T04:56:22;12.85;;;5.95;;
12880;SDS011;6508;53.786;9.996;2023-05-28T04:58:50;14.80;;;6.95;;
12880;SDS011;6508;53.786;9.996;2023-05-28T05:01:19;11.80;;;6.80;;
12880;SDS011;6508;53.786;9.996;2023-05-28T05:03:48;10.43;;;6.05;;
12880;SDS011;6508;53.786;9.996;2023-05-28T05:06:17;17.63;;;6.82;;
12880;SDS011;6508;53.786;9.996;2023-05-28T05:08:44;14.38;;;6.45;;
12880;SDS011;6508;53.786;9.996;2023-05-28T05:11:14;12.32;;;6.03;;
12880;SDS011;6508;53.786;9.996;2023-05-28T05:13:42;9.23;;;5.55;;
12880;SDS011;6508;53.786;9.996;2023-05-28T05:16:11;9.23;;;5.95;;
12880;SDS011;6508;53.786;9.996;2023-05-28T05:18:39;9.60;;;6.32;;
12880;SDS011;6508;53.786;9.996;2023-05-28T05:21:08;8.43;;;6.45;;
12880;SDS011;6508;53.786;9.996;2023-05-28T05:23:39;10.23;;;6.60;;
12880;SDS011;6508;53.786;9.996;2023-05-28T05:26:07;12.60;;;7.30;;
12880;SDS011;6508;53.786;9.996;2023-05-28T05:28:38;10.40;;;7.05;;
12880;SDS011;6508;53.786;9.996;2023-05-28T05:31:08;16.17;;;6.20;;
12880;SDS011;6508;53.786;9.996;2023-05-28T05:33:40;13.40;;;5.85;;
12880;SDS011;6508;53.786;9.996;2023-05-28T05:36:28;8.93;;;6.22;;
12880;SDS011;6508;53.786;9.996;2023-05-28T05:39:05;12.25;;;6.15;;
12880;SDS011;6508;53.786;9.996;2023-05-28T05:41:39;7.00;;;5.63;;
12880;SDS011;6508;53.786;9.996;2023-05-28T05:44:13;8.88;;;6.32;;
12880;SDS011;6508;53.786;9.996;2023-05-28T05:46:41;11.27;;;5.72;;
12880;SDS011;6508;53.786;9.996;2023-05-28T05:49:09;18.55;;;6.30;;
12880;SDS011;6508;53.786;9.996;2023-05-28T05:51:39;8.85;;;5.50;;
12880;SDS011;6508;53.786;9.996;2023-05-28T05:54:06;11.30;;;5.63;;
12880;SDS011;6508;53.786;9.996;2023-05-28T05:56:34;10.30;;;5.40;;
12880;SDS011;6508;53.786;9.996;2023-05-28T05:59:02;10.88;;;5.50;;
12880;SDS011;6508;53.786;9.996;2023-05-28T06:01:31;5.90;;;4.53;;
12880;SDS011;6508;53.786;9.996;2023-05-28T06:03:59;10.77;;;6.30;;
12880;SDS011;6508;53.786;9.996;2023-05-28T06:06:33;9.88;;;4.85;;
12880;SDS011;6508;53.786;9.996;2023-05-28T06:09:25;9.27;;;4.60;;
12880;SDS011;6508;53.786;9.996;2023-05-28T06:12:01;10.38;;;5.05;;
12880;SDS011;6508;53.786;9.996;2023-05-28T06:14:30;6.28;;;4.47;;
12880;SDS011;6508;53.786;9.996;2023-05-28T06:16:59;7.10;;;4.63;;
12880;SDS011;6508;53.786;9.996;2023-05-28T06:19:27;9.00;;;4.50;;
12880;SDS011;6508;53.786;9.996;2023-05-28T06:21:56;10.18;;;4.90;;
12880;SDS011;6508;53.786;9.996;2023-05-28T06:24:25;10.23;;;4.72;;
12880;SDS011;6508;53.786;9.996;2023-05-28T06:26:53;7.55;;;4.95;;
12880;SDS011;6508;53.786;9.996;2023-05-28T06:29:22;8.50;;;4.10;;
12880;SDS011;6508;53.786;9.996;2023-05-28T06:31:50;8.48;;;4.53;;
12880;SDS011;6508;53.786;9.996;2023-05-28T06:34:18;4.32;;;3.85;;
12880;SDS011;6508;53.786;9.996;2023-05-28T06:36:46;8.05;;;4.13;;
12880;SDS011;6508;53.786;9.996;2023-05-28T06:39:14;5.35;;;3.90;;
12880;SDS011;6508;53.786;9.996;2023-05-28T06:41:47;7.38;;;4.53;;
12880;SDS011;6508;53.786;9.996;2023-05-28T06:44:28;6.88;;;3.88;;
12880;SDS011;6508;53.786;9.996;2023-05-28T06:47:02;7.32;;;4.43;;
12880;SDS011;6508;53.786;9.996;2023-05-28T06:49:30;6.10;;;4.25;;
12880;SDS011;6508;53.786;9.996;2023-05-28T06:51:58;7.38;;;3.95;;
12880;SDS011;6508;53.786;9.996;2023-05-28T06:54:27;5.85;;;4.07;;
12880;SDS011;6508;53.786;9.996;2023-05-28T06:56:56;10.90;;;4.13;;
12880;SDS011;6508;53.786;9.996;2023-05-28T06:59:36;8.35;;;5.15;;
12880;SDS011;6508;53.786;9.996;2023-05-28T07:02:31;6.85;;;4.63;;
12880;SDS011;6508;53.786;9.996;2023-05-28T07:05:17;5.55;;;4.50;;
12880;SDS011;6508;53.786;9.996;2023-05-28T07:07:46;16.50;;;5.03;;
12880;SDS011;6508;53.786;9.996;2023-05-28T07:10:14;7.80;;;3.97;;
12880;SDS011;6508;53.786;9.996;2023-05-28T07:12:44;9.10;;;4.63;;
12880;SDS011;6508;53.786;9.996;2023-05-28T07:15:12;10.82;;;5.18;;
12880;SDS011;6508;53.786;9.996;2023-05-28T07:17:42;6.30;;;4.50;;
12880;SDS011;6508;53.786;9.996;2023-05-28T07:20:11;5.85;;;3.80;;
12880;SDS011;6508;53.786;9.996;2023-05-28T07:23:05;6.95;;;3.90;;
12880;SDS011;6508;53.786;9.996;2023-05-28T07:25:33;7.90;;;4.05;;
12880;SDS011;6508;53.786;9.996;2023-05-28T07:28:03;8.63;;;3.85;;
12880;SDS011;6508;53.786;9.996;2023-05-28T07:30:32;5.22;;;3.53;;
12880;SDS011;6508;53.786;9.996;2023-05-28T07:33:04;5.07;;;3.28;;
12880;SDS011;6508;53.786;9.996;2023-05-28T07:35:32;7.88;;;3.83;;
12880;SDS011;6508;53.786;9.996;2023-05-28T07:38:01;6.53;;;3.83;;
12880;SDS011;6508;53.786;9.996;2023-05-28T07:40:29;7.93;;;4.22;;
12880;SDS011;6508;53.786;9.996;2023-05-28T07:43:08;6.53;;;3.70;;
12880;SDS011;6508;53.786;9.996;2023-05-28T07:45:37;6.43;;;3.30;;
12880;SDS011;6508;53.786;9.996;2023-05-28T07:48:05;6.72;;;3.17;;
12880;SDS011;6508;53.786;9.996;2023-05-28T07:50:56;7.88;;;3.03;;
12880;SDS011;6508;53.786;9.996;2023-05-28T07:53:34;6.60;;;3.10;;
12880;SDS011;6508;53.786;9.996;2023-05-28T07:56:06;7.35;;;4.25;;
12880;SDS011;6508;53.786;9.996;2023-05-28T07:58:36;10.25;;;3.60;;
12880;SDS011;6508;53.786;9.996;2023-05-28T08:01:04;6.00;;;3.65;;
12880;SDS011;6508;53.786;9.996;2023-05-28T08:03:37;7.47;;;3.72;;
12880;SDS011;6508;53.786;9.996;2023-05-28T08:06:06;6.10;;;3.85;;
12880;SDS011;6508;53.786;9.996;2023-05-28T08:08:36;6.80;;;3.67;;
12880;SDS011;6508;53.786;9.996;2023-05-28T08:11:07;9.48;;;3.60;;
12880;SDS011;6508;53.786;9.996;2023-05-28T08:13:39;4.93;;;3.10;;
12880;SDS011;6508;53.786;9.996;2023-05-28T08:16:09;8.00;;;3.97;;
12880;SDS011;6508;53.786;9.996;2023-05-28T08:18:57;4.40;;;3.10;;
12880;SDS011;6508;53.786;9.996;2023-05-28T08:21:25;7.82;;;3.70;;
12880;SDS011;6508;53.786;9.996;2023-05-28T08:23:54;6.57;;;3.58;;
12880;SDS011;6508;53.786;9.996;2023-05-28T08:26:22;4.60;;;3.55;;
12880;SDS011;6508;53.786;9.996;2023-05-28T08:28:51;3.90;;;3.38;;
12880;SDS011;6508;53.786;9.996;2023-05-28T08:31:19;6.25;;;3.92;;
12880;SDS011;6508;53.786;9.996;2023-05-28T08:34:03;7.10;;;3.80;;
12880;SDS011;6508;53.786;9.996;2023-05-28T08:36:32;5.85;;;3.72;;
12880;SDS011;6508;53.786;9.996;2023-05-28T08:39:01;7.70;;;3.35;;
12880;SDS011;6508;53.786;9.996;2023-05-28T08:41:30;5.30;;;3.45;;
12880;SDS011;6508;53.786;9.996;2023-05-28T08:43:59;6.60;;;3.50;;
12880;SDS011;6508;53.786;9.996;2023-05-28T08:46:28;7.10;;;3.92;;
12880;SDS011;6508;53.786;9.996;2023-05-28T08:49:26;4.78;;;3.30;;
12880;SDS011;6508;53.786;9.996;2023-05-28T08:51:59;4.93;;;3.60;;
12880;SDS011;6508;53.786;9.996;2023-05-28T08:54:31;4.72;;;3.80;;
12880;SDS011;6508;53.786;9.996;2023-05-28T08:57:00;5.82;;;3.40;;
12880;SDS011;6508;53.786;9.996;2023-05-28T08:59:32;5.30;;;3.45;;
12880;SDS011;6508;53.786;9.996;2023-05-28T09:02:02;6.05;;;3.25;;
12880;SDS011;6508;53.786;9.996;2023-05-28T09:04:30;7.00;;;3.33;;
12880;SDS011;6508;53.786;9.996;2023-05-28T09:06:58;5.47;;;3.58;;
12880;SDS011;6508;53.786;9.996;2023-05-28T09:09:39;5.70;;;3.70;;
12880;SDS011;6508;53.786;9.996;2023-05-28T09:12:09;6.75;;;3.70;;
12880;SDS011;6508;53.786;9.996;2023-05-28T09:14:44;9.18;;;3.83;;
12880;SDS011;6508;53.786;9.996;2023-05-28T09:17:12;7.78;;;4.05;;
12880;SDS011;6508;53.786;9.996;2023-05-28T09:19:49;7.55;;;3.47;;
12880;SDS011;6508;53.786;9.996;2023-05-28T09:22:18;6.20;;;3.60;;
12880;SDS011;6508;53.786;9.996;2023-05-28T09:24:58;4.43;;;3.83;;
12880;SDS011;6508;53.786;9.996;2023-05-28T09:27:50;5.95;;;3.65;;
12880;SDS011;6508;53.786;9.996;2023-05-28T09:30:20;6.18;;;3.70;;
12880;SDS011;6508;53.786;9.996;2023-05-28T09:35:34;4.18;;;3.70;;
12880;SDS011;6508;53.786;9.996;2023-05-28T09:38:02;9.93;;;3.70;;
12880;SDS011;6508;53.786;9.996;2023-05-28T09:40:36;3.63;;;3.33;;
12880;SDS011;6508;53.786;9.996;2023-05-28T09:43:05;7.03;;;3.95;;
12880;SDS011;6508;53.786;9.996;2023-05-28T09:45:36;5.38;;;4.05;;
12880;SDS011;6508;53.786;9.996;2023-05-28T09:48:04;6.45;;;4.00;;
12880;SDS011;6508;53.786;9.996;2023-05-28T09:50:32;4.68;;;4.15;;
12880;SDS011;6508;53.786;9.996;2023-05-28T09:53:00;4.32;;;3.92;;
12880;SDS011;6508;53.786;9.996;2023-05-28T09:55:31;6.38;;;4.10;;
12880;SDS011;6508;53.786;9.996;2023-05-28T09:58:00;6.15;;;3.92;;
12880;SDS011;6508;53.786;9.996;2023-05-28T10:00:30;4.93;;;4.45;;
12880;SDS011;6508;53.786;9.996;2023-05-28T10:03:05;6.00;;;4.97;;
12880;SDS011;6508;53.786;9.996;2023-05-28T10:05:38;9.02;;;4.93;;
12880;SDS011;6508;53.786;9.996;2023-05-28T10:08:07;8.75;;;4.85;;
12880;SDS011;6508;53.786;9.996;2023-05-28T10:10:38;8.32;;;4.55;;
12880;SDS011;6508;53.786;9.996;2023-05-28T10:13:06;6.15;;;4.60;;
12880;SDS011;6508;53.786;9.996;2023-05-28T10:15:36;6.10;;;4.40;;
12880;SDS011;6508;53.786;9.996;2023-05-28T10:18:06;9.10;;;4.55;;
12880;SDS011;6508;53.786;9.996;2023-05-28T10:20:35;9.43;;;4.75;;
12880;SDS011;6508;53.786;9.996;2023-05-28T10:23:03;8.82;;;4.55;;
12880;SDS011;6508;53.786;9.996;2023-05-28T10:25:32;7.85;;;4.60;;
12880;SDS011;6508;53.786;9.996;2023-05-28T10:28:00;6.82;;;4.55;;
12880;SDS011;6508;53.786;9.996;2023-05-28T10:30:32;7.32;;;4.88;;
12880;SDS011;6508;53.786;9.996;2023-05-28T10:33:07;8.90;;;4.32;;
12880;SDS011;6508;53.786;9.996;2023-05-28T10:35:35;7.68;;;5.32;;
12880;SDS011;6508;53.786;9.996;2023-05-28T10:38:18;8.43;;;4.70;;
12880;SDS011;6508;53.786;9.996;2023-05-28T10:40:46;6.18;;;4.40;;
12880;SDS011;6508;53.786;9.996;2023-05-28T10:46:09;4.93;;;4.53;;
12880;SDS011;6508;53.786;9.996;2023-05-28T10:48:39;5.85;;;4.43;;
12880;SDS011;6508;53.786;9.996;2023-05-28T10:51:08;6.40;;;4.05;;
12880;SDS011;6508;53.786;9.996;2023-05-28T10:53:37;6.30;;;4.00;;
12880;SDS011;6508;53.786;9.996;2023-05-28T10:56:05;8.25;;;4.40;;
12880;SDS011;6508;53.786;9.996;2023-05-28T10:58:35;6.50;;;4.32;;
12880;SDS011;6508;53.786;9.996;2023-05-28T11:01:05;5.07;;;4.68;;
12880;SDS011;6508;53.786;9.996;2023-05-28T11:03:51;8.30;;;4.90;;
12880;SDS011;6508;53.786;9.996;2023-05-28T11:06:21;7.22;;;4.35;;
12880;SDS011;6508;53.786;9.996;2023-05-28T11:08:52;9.13;;;4.95;;
12880;SDS011;6508;53.786;9.996;2023-05-28T11:11:19;4.55;;;4.13;;
12880;SDS011;6508;53.786;9.996;2023-05-28T11:13:48;5.97;;;5.00;;
12880;SDS011;6508;53.786;9.996;2023-05-28T11:16:17;7.93;;;4.32;;
12880;SDS011;6508;53.786;9.996;2023-05-28T11:21:48;6.82;;;4.63;;
12880;SDS011;6508;53.786;9.996;2023-05-28T11:24:17;7.93;;;4.45;;
12880;SDS011;6508;53.786;9.996;2023-05-28T11:26:45;4.35;;;4.05;;
12880;SDS011;6508;53.786;9.996;2023-05-28T11:29:13;5.18;;;4.07;;
12880;SDS011;6508;53.786;9.996;2023-05-28T11:31:43;5.97;;;4.70;;
12880;SDS011;6508;53.786;9.996;2023-05-28T11:34:12;7.18;;;4.20;;
12880;SDS011;6508;53.786;9.996;2023-05-28T11:36:40;4.63;;;4.07;;
12880;SDS011;6508;53.786;9.996;2023-05-28T11:39:08;5.15;;;4.28;;
12880;SDS011;6508;53.786;9.996;2023-05-28T11:41:36;5.10;;;4.07;;
12880;SDS011;6508;53.786;9.996;2023-05-28T11:44:17;5.00;;;4.05;;
12880;SDS011;6508;53.786;9.996;2023-05-28T11:46:45;5.32;;;4.18;;
12880;SDS011;6508;53.786;9.996;2023-05-28T11:49:14;7.38;;;4.22;;
12880;SDS011;6508;53.786;9.996;2023-05-28T11:51:43;5.80;;;4.32;;
12880;SDS011;6508;53.786;9.996;2023-05-28T11:54:10;5.90;;;4.07;;
12880;SDS011;6508;53.786;9.996;2023-05-28T11:56:39;6.82;;;4.80;;
12880;SDS011;6508;53.786;9.996;2023-05-28T11:59:06;5.28;;;4.20;;
12880;SDS011;6508;53.786;9.996;2023-05-28T12:01:34;6.30;;;4.07;;
12880;SDS011;6508;53.786;9.996;2023-05-28T12:04:03;5.63;;;5.10;;
12880;SDS011;6508;53.786;9.996;2023-05-28T12:06:34;8.35;;;4.50;;
12880;SDS011;6508;53.786;9.996;2023-05-28T12:09:06;8.00;;;4.35;;
12880;SDS011;6508;53.786;9.996;2023-05-28T12:11:34;9.07;;;7.90;;
12880;SDS011;6508;53.786;9.996;2023-05-28T12:14:11;4.38;;;3.97;;
12880;SDS011;6508;53.786;9.996;2023-05-28T12:16:42;5.22;;;4.25;;
12880;SDS011;6508;53.786;9.996;2023-05-28T12:19:11;5.95;;;4.20;;
12880;SDS011;6508;53.786;9.996;2023-05-28T12:21:43;4.20;;;3.90;;
12880;SDS011;6508;53.786;9.996;2023-05-28T12:24:12;5.30;;;4.07;;
12880;SDS011;6508;53.786;9.996;2023-05-28T12:26:41;5.40;;;4.20;;
12880;SDS011;6508;53.786;9.996;2023-05-28T12:29:09;4.53;;;4.10;;
12880;SDS011;6508;53.786;9.996;2023-05-28T12:31:37;5.80;;;4.90;;
12880;SDS011;6508;53.786;9.996;2023-05-28T12:34:04;5.53;;;4.97;;
12880;SDS011;6508;53.786;9.996;2023-05-28T12:36:32;4.63;;;4.28;;
12880;SDS011;6508;53.786;9.996;2023-05-28T12:39:02;4.53;;;4.15;;
12880;SDS011;6508;53.786;9.996;2023-05-28T12:41:31;5.15;;;4.72;;
12880;SDS011;6508;53.786;9.996;2023-05-28T12:44:00;4.97;;;3.95;;
12880;SDS011;6508;53.786;9.996;2023-05-28T12:46:27;4.75;;;4.35;;
12880;SDS011;6508;53.786;9.996;2023-05-28T12:48:55;6.03;;;4.32;;
12880;SDS011;6508;53.786;9.996;2023-05-28T12:51:23;4.90;;;4.35;;
12880;SDS011;6508;53.786;9.996;2023-05-28T12:53:51;4.25;;;3.85;;
12880;SDS011;6508;53.786;9.996;2023-05-28T12:56:20;5.18;;;4.75;;
12880;SDS011;6508;53.786;9.996;2023-05-28T12:58:49;5.00;;;4.60;;
12880;SDS011;6508;53.786;9.996;2023-05-28T13:01:19;4.60;;;4.20;;
12880;SDS011;6508;53.786;9.996;2023-05-28T13:03:46;4.97;;;4.57;;
12880;SDS011;6508;53.786;9.996;2023-05-28T13:06:15;5.20;;;4.32;;
12880;SDS011;6508;53.786;9.996;2023-05-28T13:08:42;7.63;;;5.00;;
12880;SDS011;6508;53.786;9.996;2023-05-28T13:11:11;4.60;;;4.30;;
12880;SDS011;6508;53.786;9.996;2023-05-28T13:13:40;4.47;;;4.07;;
12880;SDS011;6508;53.786;9.996;2023-05-28T13:16:08;4.47;;;4.13;;
12880;SDS011;6508;53.786;9.996;2023-05-28T13:18:39;4.35;;;4.05;;
12880;SDS011;6508;53.786;9.996;2023-05-28T13:21:09;4.55;;;4.25;;
12880;SDS011;6508;53.786;9.996;2023-05-28T13:23:36;4.40;;;4.20;;
12880;SDS011;6508;53.786;9.996;2023-05-28T13:26:04;4.32;;;4.03;;
12880;SDS011;6508;53.786;9.996;2023-05-28T13:28:32;7.35;;;4.20;;
12880;SDS011;6508;53.786;9.996;2023-05-28T13:31:01;4.15;;;3.95;;
12880;SDS011;6508;53.786;9.996;2023-05-28T13:33:29;4.03;;;3.75;;
12880;SDS011;6508;53.786;9.996;2023-05-28T13:35:57;4.10;;;3.80;;
12880;SDS011;6508;53.786;9.996;2023-05-28T13:38:25;4.30;;;4.00;;
12880;SDS011;6508;53.786;9.996;2023-05-28T13:40:53;4.38;;;3.92;;
12880;SDS011;6508;53.786;9.996;2023-05-28T13:43:22;4.25;;;3.92;;
12880;SDS011;6508;53.786;9.996;2023-05-28T13:45:50;3.88;;;3.67;;
12880;SDS011;6508;53.786;9.996;2023-05-28T13:48:19;3.97;;;3.78;;
12880;SDS011;6508;53.786;9.996;2023-05-28T13:50:50;4.32;;;4.03;;
12880;SDS011;6508;53.786;9.996;2023-05-28T13:53:18;4.07;;;3.85;;
12880;SDS011;6508;53.786;9.996;2023-05-28T13:55:46;4.13;;;3.92;;
12880;SDS011;6508;53.786;9.996;2023-05-28T13:58:14;4.28;;;3.90;;
12880;SDS011;6508;53.786;9.996;2023-05-28T14:00:42;3.90;;;3.70;;
12880;SDS011;6508;53.786;9.996;2023-05-28T14:03:10;4.15;;;3.85;;
12880;SDS011;6508;53.786;9.996;2023-05-28T14:06:15;4.68;;;4.38;;
12880;SDS011;6508;53.786;9.996;2023-05-28T14:08:43;3.83;;;3.63;;
12880;SDS011;6508;53.786;9.996;2023-05-28T14:11:11;4.40;;;4.00;;
12880;SDS011;6508;53.786;9.996;2023-05-28T14:13:39;4.18;;;3.88;;
12880;SDS011;6508;53.786;9.996;2023-05-28T14:16:07;3.92;;;3.72;;
12880;SDS011;6508;53.786;9.996;2023-05-28T14:18:35;4.55;;;4.25;;
12880;SDS011;6508;53.786;9.996;2023-05-28T14:21:03;4.65;;;4.30;;
12880;SDS011;6508;53.786;9.996;2023-05-28T14:23:34;4.60;;;4.22;;
12880;SDS011;6508;53.786;9.996;2023-05-28T14:26:01;4.90;;;4.50;;
12880;SDS011;6508;53.786;9.996;2023-05-28T14:28:30;4.80;;;4.35;;
12880;SDS011;6508;53.786;9.996;2023-05-28T14:30:58;4.43;;;4.13;;
12880;SDS011;6508;53.786;9.996;2023-05-28T14:33:26;4.53;;;4.22;;
12880;SDS011;6508;53.786;9.996;2023-05-28T14:35:57;4.10;;;3.90;;
12880;SDS011;6508;53.786;9.996;2023-05-28T14:38:42;4.70;;;4.28;;
12880;SDS011;6508;53.786;9.996;2023-05-28T14:41:10;5.63;;;5.22;;
12880;SDS011;6508;53.786;9.996;2023-05-28T14:43:39;4.30;;;4.10;;
12880;SDS011;6508;53.786;9.996;2023-05-28T14:46:07;4.40;;;4.10;;
12880;SDS011;6508;53.786;9.996;2023-05-28T14:48:35;4.85;;;3.88;;
12880;SDS011;6508;53.786;9.996;2023-05-28T14:51:03;4.05;;;3.70;;
12880;SDS011;6508;53.786;9.996;2023-05-28T14:53:33;4.30;;;4.00;;
12880;SDS011;6508;53.786;9.996;2023-05-28T14:56:02;4.55;;;4.15;;
12880;SDS011;6508;53.786;9.996;2023-05-28T14:58:30;4.10;;;3.83;;
12880;SDS011;6508;53.786;9.996;2023-05-28T15:00:58;3.85;;;3.47;;
12880;SDS011;6508;53.786;9.996;2023-05-28T15:03:29;4.15;;;3.72;;
12880;SDS011;6508;53.786;9.996;2023-05-28T15:05:57;4.70;;;3.53;;
12880;SDS011;6508;53.786;9.996;2023-05-28T15:08:26;4.35;;;3.95;;
12880;SDS011;6508;53.786;9.996;2023-05-28T15:10:54;3.72;;;3.42;;
12880;SDS011;6508;53.786;9.996;2023-05-28T15:13:24;3.78;;;3.50;;
12880;SDS011;6508;53.786;9.996;2023-05-28T15:15:52;4.32;;;3.88;;
12880;SDS011;6508;53.786;9.996;2023-05-28T15:18:20;3.97;;;3.67;;
12880;SDS011;6508;53.786;9.996;2023-05-28T15:20:48;3.50;;;3.22;;